createdAt,value
2022-11-05T00:00:55.651Z,100037.63
2022-11-05T00:02:15.875Z,100043.50
2022-11-05T00:03:36.326Z,100043.78
2022-11-05T00:04:56.283Z,100039.84
2022-11-05T00:06:16.531Z,100046.28
2022-11-05T00:07:36.988Z,100040.16
2022-11-05T00:08:57.371Z,100045.75
2022-11-05T00:10:00.519Z,100040.16
2022-11-05T00:11:02.093Z,100037.03
2022-11-05T00:12:23.542Z,100058.63
2022-11-05T00:13:43.697Z,100035.72
2022-11-05T00:15:04.092Z,100051.38
2022-11-05T00:16:24.129Z,100049.69
2022-11-05T00:17:25.702Z,100054.47
2022-11-05T00:18:27.208Z,100064.84
2022-11-05T00:19:28.737Z,100053.91
2022-11-05T00:20:30.278Z,100060.38
2022-11-05T00:21:53.807Z,100057.03
2022-11-05T00:23:20.310Z,100053.09
2022-11-05T00:24:40.586Z,100063.16
2022-11-05T00:25:42.142Z,100072.72
2022-11-05T00:26:43.747Z,100061.50
2022-11-05T00:27:51.857Z,100067.09
2022-11-05T00:28:53.346Z,100068.22
2022-11-05T00:29:54.890Z,100071.88
2022-11-05T00:31:04.934Z,100081.13
2022-11-05T00:32:06.423Z,100080.56
2022-11-05T00:33:08.130Z,100087.84
2022-11-05T00:34:09.846Z,100079.44
2022-11-05T00:35:11.474Z,100090.34
2022-11-05T00:36:12.978Z,100081.66
2022-11-05T00:37:14.422Z,100079.41
2022-11-05T00:38:15.881Z,100091.75
2022-11-05T00:39:17.397Z,100088.63
2022-11-05T00:40:18.878Z,100090.59
2022-11-05T00:41:20.383Z,100092.28
2022-11-05T00:42:40.722Z,100087.50
2022-11-05T00:44:01.074Z,100089.22
2022-11-05T00:45:02.817Z,100084.44
2022-11-05T00:46:04.357Z,100098.44
2022-11-05T00:47:24.599Z,100091.72
2022-11-05T00:48:44.693Z,100083.59
2022-11-05T00:49:46.151Z,100089.75
2022-11-05T00:50:47.922Z,100094.53
2022-11-05T00:52:09.367Z,100095.66
2022-11-05T00:53:11.399Z,100101.25
2022-11-05T00:54:13.132Z,100101.25
2022-11-05T00:55:14.582Z,100102.94
2022-11-05T00:56:16.126Z,100099.00
2022-11-05T00:57:17.616Z,100093.38
2022-11-05T00:58:19.662Z,100100.66
2022-11-05T00:59:21.097Z,100100.66
2022-11-05T01:00:23.837Z,100093.38
2022-11-05T01:01:25.429Z,100097.84
2022-11-05T01:02:27.047Z,100093.38
2022-11-05T01:03:35.078Z,100100.66
2022-11-05T01:04:36.543Z,100096.19
2022-11-05T01:05:38.798Z,100092.25
2022-11-05T01:06:40.338Z,100110.22
2022-11-05T01:07:41.825Z,100107.41
2022-11-05T01:08:43.707Z,100110.22
2022-11-05T01:09:45.169Z,100117.47
2022-11-05T01:10:47.374Z,100106.28
2022-11-05T01:11:49.366Z,100108.25
2022-11-05T01:12:50.905Z,100102.63
2022-11-05T01:13:52.379Z,100107.41
2022-11-05T01:14:53.836Z,100117.47
2022-11-05T01:15:55.474Z,100117.47
2022-11-05T01:16:56.908Z,100120.59
2022-11-05T01:17:58.354Z,100113.00
2022-11-05T01:19:00.614Z,100115.81
2022-11-05T01:20:02.173Z,100119.44
2022-11-05T01:21:13.195Z,100110.22
2022-11-05T01:22:14.741Z,100114.69
2022-11-05T01:23:16.773Z,100113.00
2022-11-05T01:24:18.477Z,100114.69
2022-11-05T01:25:19.981Z,100111.88
2022-11-05T01:26:21.453Z,100110.22
2022-11-05T01:27:22.902Z,100110.22
2022-11-05T01:28:24.462Z,100120.59
2022-11-05T01:29:25.917Z,100118.06
2022-11-05T01:30:27.357Z,100117.25
2022-11-05T01:31:29.188Z,100114.44
2022-11-05T01:32:30.789Z,100120.03
2022-11-05T01:33:32.278Z,100117.25
2022-11-05T01:34:33.793Z,100118.63
2022-11-05T01:35:35.307Z,100115.28
2022-11-05T01:36:36.749Z,100120.06
2022-11-05T01:37:38.301Z,100126.50
2022-11-05T01:38:39.817Z,100118.38
2022-11-05T01:39:41.327Z,100121.47
2022-11-05T01:40:42.878Z,100126.25
2022-11-05T01:41:44.305Z,100120.94
2022-11-05T01:42:45.770Z,100120.41
2022-11-05T01:43:57.502Z,100128.81
2022-11-05T01:45:03.445Z,100126.56
2022-11-05T01:46:04.956Z,100132.16
2022-11-05T01:47:07.376Z,100134.44
2022-11-05T01:48:09.693Z,100131.63
2022-11-05T01:49:37.412Z,100137.22
2022-11-05T01:50:45.111Z,100136.66
2022-11-05T01:51:46.672Z,100139.47
2022-11-05T01:52:48.264Z,100135.81
2022-11-05T01:53:58.322Z,100138.63
2022-11-05T01:54:59.757Z,100143.41
2022-11-05T01:56:05.577Z,100145.38
2022-11-05T01:57:08.008Z,100150.41
2022-11-05T01:58:09.685Z,100152.38
2022-11-05T01:59:28.195Z,100153.81
2022-11-05T02:00:31.468Z,100160.81
2022-11-05T02:01:33.114Z,100150.72
2022-11-05T02:02:34.771Z,100155.19
2022-11-05T02:03:36.468Z,100151.84
2022-11-05T02:04:45.540Z,100154.66
2022-11-05T02:05:47.039Z,100155.78
2022-11-05T02:06:48.536Z,100151.03
2022-11-05T02:07:50.051Z,100157.47
2022-11-05T02:08:57.243Z,100152.69
2022-11-05T02:10:08.456Z,100154.66
2022-11-05T02:11:11.105Z,100157.47
2022-11-05T02:12:12.592Z,100156.34
2022-11-05T02:13:14.130Z,100155.50
2022-11-05T02:14:18.502Z,100160.25
2022-11-05T02:15:52.462Z,100157.47
2022-11-05T02:17:03.116Z,100162.22
2022-11-05T02:18:04.556Z,100156.63
2022-11-05T02:19:06.037Z,100160.56
2022-11-05T02:20:39.765Z,100160.56
2022-11-05T02:21:44.170Z,100158.59
2022-11-05T02:22:45.682Z,100167.00
2022-11-05T02:23:47.141Z,100167.84
2022-11-05T02:24:51.914Z,100173.72
2022-11-05T02:26:11.650Z,100167.59
2022-11-05T02:27:26.849Z,100170.94
2022-11-05T02:28:36.883Z,100170.94
2022-11-05T02:29:44.052Z,100182.97
2022-11-05T02:31:04.749Z,100174.28
2022-11-05T02:32:11.937Z,100173.44
2022-11-05T02:33:16.442Z,100174.28
2022-11-05T02:34:25.312Z,100177.91
2022-11-05T02:35:45.271Z,100178.19
2022-11-05T02:36:48.513Z,100177.38
2022-11-05T02:37:51.706Z,100176.25
2022-11-05T02:38:53.216Z,100179.88
2022-11-05T02:39:56.493Z,100181.84
2022-11-05T02:41:08.645Z,100179.63
2022-11-05T02:42:12.741Z,100182.97
2022-11-05T02:43:30.829Z,100183.81
2022-11-05T02:44:32.363Z,100185.47
2022-11-05T02:45:49.260Z,100179.03
2022-11-05T02:46:53.610Z,100191.09
2022-11-05T02:47:59.625Z,100181.56
2022-11-05T02:49:01.169Z,100183.22
2022-11-05T02:50:11.545Z,100189.41
2022-11-05T02:51:16.536Z,100187.75
2022-11-05T02:52:36.354Z,100195.00
2022-11-05T02:53:40.922Z,100187.75
2022-11-05T02:54:52.747Z,100193.91
2022-11-05T02:55:54.242Z,100191.97
2022-11-05T02:56:55.690Z,100189.16
2022-11-05T02:57:59.756Z,100195.59
2022-11-05T02:59:01.196Z,100198.69
2022-11-05T03:00:04.805Z,100197.00
2022-11-05T03:01:07.167Z,100196.72
2022-11-05T03:02:08.788Z,100200.38
2022-11-05T03:03:33.238Z,100199.22
2022-11-05T03:04:34.777Z,100203.16
2022-11-05T03:06:05.406Z,100198.69
2022-11-05T03:07:25.455Z,100198.41
2022-11-05T03:08:35.915Z,100205.13
2022-11-05T03:09:43.273Z,100196.72
2022-11-05T03:10:51.733Z,100205.13
2022-11-05T03:11:59.259Z,100206.25
2022-11-05T03:13:03.669Z,100204.00
2022-11-05T03:14:28.166Z,100197.84
2022-11-05T03:15:35.687Z,100207.38
2022-11-05T03:16:44.025Z,100210.19
2022-11-05T03:17:52.545Z,100201.78
2022-11-05T03:19:09.115Z,100205.72
2022-11-05T03:20:18.631Z,100207.94
2022-11-05T03:21:24.947Z,100213.00
2022-11-05T03:22:28.587Z,100207.09
2022-11-05T03:23:37.836Z,100211.88
2022-11-05T03:24:40.732Z,100219.97
2022-11-05T03:26:02.689Z,100213.53
2022-11-05T03:27:05.897Z,100225.31
2022-11-05T03:28:07.395Z,100220.56
2022-11-05T03:29:09.736Z,100226.16
2022-11-05T03:30:11.394Z,100217.75
2022-11-05T03:31:12.904Z,100221.41
2022-11-05T03:32:14.625Z,100223.91
2022-11-05T03:33:18.122Z,100223.06
2022-11-05T03:34:20.089Z,100227.84
2022-11-05T03:35:24.605Z,100232.59
2022-11-05T03:36:27.363Z,100226.16
2022-11-05T03:37:29.721Z,100236.25
2022-11-05T03:38:32.557Z,100231.75
2022-11-05T03:39:35.989Z,100233.19
2022-11-05T03:40:37.488Z,100233.19
2022-11-05T03:41:39.465Z,100233.19
2022-11-05T03:42:41.255Z,100228.41
2022-11-05T03:43:44.885Z,100234.31
2022-11-05T03:44:47.902Z,100234.31
2022-11-05T03:45:52.154Z,100235.97
2022-11-05T03:46:54.144Z,100237.09
2022-11-05T03:47:56.881Z,100229.84
2022-11-05T03:48:58.800Z,100241.88
2022-11-05T03:50:03.241Z,100236.28
2022-11-05T03:51:23.674Z,100241.63
2022-11-05T03:52:26.033Z,100248.88
2022-11-05T03:53:30.523Z,100247.22
2022-11-05T03:54:32.698Z,100246.94
2022-11-05T03:55:44.571Z,100243.00
2022-11-05T03:56:46.018Z,100237.16
2022-11-05T03:57:47.456Z,100247.47
2022-11-05T03:58:48.970Z,100256.72
2022-11-05T03:59:50.511Z,100254.50
2022-11-05T04:00:52.040Z,100258.13
2022-11-05T04:01:53.915Z,100256.16
2022-11-05T04:02:55.649Z,100258.97
2022-11-05T04:03:57.296Z,100262.34
2022-11-05T04:04:58.795Z,100264.31
2022-11-05T04:06:18.889Z,100270.47
2022-11-05T04:07:39.364Z,100269.06
2022-11-05T04:08:59.566Z,100267.41
2022-11-05T04:10:19.706Z,100266.28
2022-11-05T04:11:39.961Z,100262.09
2022-11-05T04:13:00.121Z,100265.72
2022-11-05T04:14:01.735Z,100268.53
2022-11-05T04:15:03.273Z,100267.97
2022-11-05T04:16:23.417Z,100269.66
2022-11-05T04:17:24.915Z,100266.00
2022-11-05T04:18:26.390Z,100271.63
2022-11-05T04:19:46.197Z,100261.25
2022-11-05T04:21:06.107Z,100274.41
2022-11-05T04:22:26.410Z,100275.81
2022-11-05T04:23:46.655Z,100271.06
2022-11-05T04:24:48.205Z,100274.69
2022-11-05T04:25:49.681Z,100281.44
2022-11-05T04:26:51.187Z,100272.44
2022-11-05T04:27:52.734Z,100278.03
2022-11-05T04:29:12.804Z,100274.69
2022-11-05T04:30:24.275Z,100285.88
2022-11-05T04:31:26.522Z,100281.97
2022-11-05T04:32:28.257Z,100287.28
2022-11-05T04:33:29.757Z,100284.22
2022-11-05T04:34:31.301Z,100283.09
2022-11-05T04:35:34.107Z,100288.41
2022-11-05T04:36:35.568Z,100289.25
2022-11-05T04:37:37.079Z,100290.91
2022-11-05T04:38:38.567Z,100289.25
2022-11-05T04:39:40.160Z,100291.50
2022-11-05T04:40:41.690Z,100298.78
2022-11-05T04:41:43.160Z,100291.50
2022-11-05T04:42:44.679Z,100297.09
2022-11-05T04:43:46.161Z,100294.00
2022-11-05T04:44:47.765Z,100293.72
2022-11-05T04:45:49.240Z,100307.72
2022-11-05T04:46:50.679Z,100290.91
2022-11-05T04:47:52.223Z,100292.63
2022-11-05T04:48:53.657Z,100308.28
2022-11-05T04:49:55.118Z,100304.38
2022-11-05T04:50:56.618Z,100299.59
2022-11-05T04:51:58.126Z,100308.00
2022-11-05T04:52:59.765Z,100306.34
2022-11-05T04:54:01.404Z,100310.53
2022-11-05T04:55:03.085Z,100310.53
2022-11-05T04:56:11.671Z,100308.28
2022-11-05T04:57:13.169Z,100311.94
2022-11-05T04:58:14.614Z,100309.97
2022-11-05T04:59:16.171Z,100306.88
2022-11-05T05:00:17.996Z,100313.31
2022-11-05T05:01:20.531Z,100313.31
2022-11-05T05:02:22.229Z,100318.09
2022-11-05T05:03:23.769Z,100320.88
2022-11-05T05:04:25.266Z,100326.22
2022-11-05T05:05:26.766Z,100312.50
2022-11-05T05:06:28.262Z,100320.06
2022-11-05T05:07:29.757Z,100315.56
2022-11-05T05:08:31.309Z,100314.72
2022-11-05T05:09:32.765Z,100322.84
2022-11-05T05:10:35.281Z,100316.41
2022-11-05T05:11:36.802Z,100330.69
2022-11-05T05:12:38.302Z,100334.06
2022-11-05T05:13:39.913Z,100327.63
2022-11-05T05:14:41.406Z,100327.34
2022-11-05T05:15:42.877Z,100329.31
2022-11-05T05:16:44.383Z,100334.06
2022-11-05T05:17:50.039Z,100332.09
2022-11-05T05:18:51.670Z,100330.16
2022-11-05T05:20:11.972Z,100323.41
2022-11-05T05:21:32.883Z,100327.34
2022-11-05T05:22:34.405Z,100332.09
2022-11-05T05:23:36.146Z,100324.84
2022-11-05T05:24:37.689Z,100326.25
2022-11-05T05:25:39.193Z,100327.38
2022-11-05T05:26:44.380Z,100326.78
2022-11-05T05:27:45.868Z,100327.06
2022-11-05T05:28:47.355Z,100331.81
2022-11-05T05:29:48.869Z,100335.75
2022-11-05T05:30:53.596Z,100332.13
2022-11-05T05:31:57.673Z,100334.06
2022-11-05T05:33:01.527Z,100324.56
2022-11-05T05:34:03.229Z,100329.31
2022-11-05T05:35:04.850Z,100340.50
2022-11-05T05:36:11.141Z,100336.03
2022-11-05T05:37:13.006Z,100339.13
2022-11-05T05:38:14.502Z,100339.13
2022-11-05T05:39:16.037Z,100339.13
2022-11-05T05:40:17.605Z,100343.03
2022-11-05T05:41:19.149Z,100340.53
2022-11-05T05:42:22.831Z,100342.78
2022-11-05T05:43:24.279Z,100343.06
2022-11-05T05:44:25.828Z,100347.78
2022-11-05T05:45:27.331Z,100355.94
2022-11-05T05:46:28.790Z,100359.56
2022-11-05T05:47:30.306Z,100348.91
2022-11-05T05:48:31.839Z,100354.22
2022-11-05T05:49:33.340Z,100351.16
2022-11-05T05:50:35.037Z,100354.78
2022-11-05T05:51:41.798Z,100357.59
2022-11-05T05:52:43.325Z,100353.66
2022-11-05T05:53:44.884Z,100362.66
2022-11-05T05:54:46.445Z,100355.34
2022-11-05T05:55:47.909Z,100358.72
2022-11-05T05:56:49.369Z,100366.00
2022-11-05T05:57:50.929Z,100361.53
2022-11-05T05:58:52.437Z,100359.84
2022-11-05T05:59:54.001Z,100364.88
2022-11-05T06:00:55.469Z,100365.44
2022-11-05T06:01:57.133Z,100361.22
2022-11-05T06:02:58.744Z,100377.75
2022-11-05T06:04:00.281Z,100365.97
2022-11-05T06:05:01.773Z,100371.06
2022-11-05T06:06:04.201Z,100365.16
2022-11-05T06:07:05.692Z,100375.53
2022-11-05T06:08:07.197Z,100381.13
2022-11-05T06:09:09.029Z,100381.13
2022-11-05T06:10:10.521Z,100385.59
2022-11-05T06:11:12.190Z,100380.00
2022-11-05T06:12:13.662Z,100374.97
2022-11-05T06:13:15.110Z,100377.75
2022-11-05T06:14:16.673Z,100388.97
2022-11-05T06:15:18.147Z,100388.66
2022-11-05T06:16:19.605Z,100385.03
2022-11-05T06:17:21.146Z,100393.16
2022-11-05T06:18:22.602Z,100395.13
2022-11-05T06:19:24.105Z,100383.06
2022-11-05T06:20:25.657Z,100387.00
2022-11-05T06:21:27.102Z,100399.03
2022-11-05T06:22:28.566Z,100404.63
2022-11-05T06:23:31.270Z,100398.75
2022-11-05T06:24:32.754Z,100407.16
2022-11-05T06:25:39.991Z,100400.72
2022-11-05T06:26:43.293Z,100406.31
2022-11-05T06:27:44.747Z,100410.22
2022-11-05T06:28:46.321Z,100406.31
2022-11-05T06:29:47.963Z,100411.91
2022-11-05T06:30:52.259Z,100407.16
2022-11-05T06:31:53.956Z,100420.03
2022-11-05T06:32:55.424Z,100410.78
2022-11-05T06:33:56.849Z,100416.38
2022-11-05T06:34:58.377Z,100422.00
2022-11-05T06:36:00.838Z,100420.31
2022-11-05T06:37:02.291Z,100423.09
2022-11-05T06:38:03.842Z,100431.78
2022-11-05T06:39:05.304Z,100423.09
2022-11-05T06:40:06.971Z,100425.91
2022-11-05T06:41:10.445Z,100427.88
2022-11-05T06:42:18.404Z,100436.56
2022-11-05T06:43:20.684Z,100433.75
2022-11-05T06:44:22.496Z,100429.28
2022-11-05T06:45:24.169Z,100434.59
2022-11-05T06:46:25.625Z,100440.75
2022-11-05T06:47:27.134Z,100439.91
2022-11-05T06:48:28.963Z,100437.13
2022-11-05T06:49:30.429Z,100441.03
2022-11-05T06:50:31.930Z,100441.56
2022-11-05T06:51:33.409Z,100444.38
2022-11-05T06:52:40.759Z,100441.28
2022-11-05T06:53:42.630Z,100439.59
2022-11-05T06:54:44.072Z,100440.44
2022-11-05T06:55:48.054Z,100444.38
2022-11-05T06:56:49.542Z,100449.13
2022-11-05T06:57:51.050Z,100454.44
2022-11-05T06:58:52.601Z,100444.38
2022-11-05T06:59:59.964Z,100452.75
2022-11-05T07:01:05.453Z,100455.28
2022-11-05T07:02:07.549Z,100457.53
2022-11-05T07:03:10.129Z,100448.28
2022-11-05T07:04:12.184Z,100458.38
2022-11-05T07:05:13.977Z,100461.16
2022-11-05T07:06:15.468Z,100461.72
2022-11-05T07:07:17.235Z,100458.91
2022-11-05T07:08:18.725Z,100461.16
2022-11-05T07:09:20.265Z,100469.00
2022-11-05T07:10:21.849Z,100465.63
2022-11-05T07:11:23.325Z,100467.31
2022-11-05T07:12:24.778Z,100477.41
2022-11-05T07:13:26.280Z,100470.69
2022-11-05T07:14:27.717Z,100467.03
2022-11-05T07:15:29.193Z,100471.25
2022-11-05T07:16:30.667Z,100470.13
2022-11-05T07:17:32.387Z,100478.53
2022-11-05T07:18:33.851Z,100475.16
2022-11-05T07:19:35.369Z,100478.53
2022-11-05T07:20:36.804Z,100479.34
2022-11-05T07:21:38.341Z,100475.47
2022-11-05T07:22:39.788Z,100475.19
2022-11-05T07:23:41.361Z,100478.00
2022-11-05T07:24:43.738Z,100474.91
2022-11-05T07:25:46.928Z,100481.63
2022-11-05T07:26:48.388Z,100473.22
2022-11-05T07:27:49.866Z,100486.94
2022-11-05T07:28:51.310Z,100492.53
2022-11-05T07:29:52.785Z,100486.94
2022-11-05T07:30:54.358Z,100498.97
2022-11-05T07:31:55.833Z,100485.81
2022-11-05T07:32:57.323Z,100484.69
2022-11-05T07:33:59.242Z,100499.25
2022-11-05T07:35:00.733Z,100498.41
2022-11-05T07:36:02.255Z,100494.78
2022-11-05T07:37:03.761Z,100497.59
2022-11-05T07:38:05.323Z,100497.59
2022-11-05T07:39:08.587Z,100505.97
2022-11-05T07:40:11.423Z,100508.78
2022-11-05T07:41:12.906Z,100508.50
2022-11-05T07:42:14.456Z,100512.41
2022-11-05T07:43:15.949Z,100507.66
2022-11-05T07:44:17.624Z,100516.06
2022-11-05T07:45:19.176Z,100504.88
2022-11-05T07:46:20.638Z,100518.84
2022-11-05T07:47:22.080Z,100510.75
2022-11-05T07:48:23.565Z,100517.47
2022-11-05T07:49:25.109Z,100523.91
2022-11-05T07:50:27.459Z,100527.25
2022-11-05T07:51:29.092Z,100526.13
2022-11-05T07:52:31.466Z,100529.22
2022-11-05T07:53:32.941Z,100532.88
2022-11-05T07:54:34.391Z,100536.22
2022-11-05T07:55:36.089Z,100532.88
2022-11-05T07:56:37.569Z,100544.63
2022-11-05T07:57:43.067Z,100537.91
2022-11-05T07:58:44.563Z,100544.09
2022-11-05T07:59:46.040Z,100542.97
2022-11-05T08:00:48.023Z,100539.06
2022-11-05T08:01:49.822Z,100536.25
2022-11-05T08:03:07.177Z,100540.72
2022-11-05T08:04:09.560Z,100539.06
2022-11-05T08:05:10.998Z,100546.34
2022-11-05T08:06:12.551Z,100540.72
2022-11-05T08:07:13.985Z,100538.50
2022-11-05T08:08:18.713Z,100548.56
2022-11-05T08:09:20.194Z,100549.69
2022-11-05T08:10:22.447Z,100552.22
2022-11-05T08:11:23.928Z,100551.38
2022-11-05T08:12:25.438Z,100553.34
2022-11-05T08:13:26.917Z,100553.06
2022-11-05T08:14:28.370Z,100557.81
2022-11-05T08:15:29.887Z,100557.25
2022-11-05T08:16:31.389Z,100562.03
2022-11-05T08:17:32.918Z,100559.81
2022-11-05T08:18:34.405Z,100552.56
2022-11-05T08:19:35.904Z,100563.78
2022-11-05T08:20:38.487Z,100557.09
2022-11-05T08:21:40.002Z,100558.19
2022-11-05T08:22:42.379Z,100557.34
2022-11-05T08:23:44.002Z,100554.78
2022-11-05T08:24:45.510Z,100548.59
2022-11-05T08:25:46.974Z,100553.56
2022-11-05T08:26:48.449Z,100548.47
2022-11-05T08:27:59.643Z,100551.81
2022-11-05T08:29:01.230Z,100548.44
2022-11-05T08:30:02.916Z,100553.75
2022-11-05T08:31:04.479Z,100557.97
2022-11-05T08:32:05.960Z,100552.63
2022-11-05T08:33:08.860Z,100559.63
2022-11-05T08:34:10.804Z,100552.88
2022-11-05T08:35:12.393Z,100551.94
2022-11-05T08:36:13.876Z,100559.53
2022-11-05T08:37:15.384Z,100555.00
2022-11-05T08:38:17.638Z,100559.44
2022-11-05T08:39:19.880Z,100548.75
2022-11-05T08:40:21.351Z,100555.72
2022-11-05T08:41:22.837Z,100552.63
2022-11-05T08:42:24.378Z,100557.91
2022-11-05T08:43:26.109Z,100558.44
2022-11-05T08:44:29.469Z,100552.22
2022-11-05T08:45:31.192Z,100564.28
2022-11-05T08:46:35.430Z,100551.38
2022-11-05T08:47:40.484Z,100555.63
2022-11-05T08:48:42.038Z,100566.84
2022-11-05T08:49:43.514Z,100569.41
2022-11-05T08:50:45.441Z,100577.88
2022-11-05T08:51:46.930Z,100559.31
2022-11-05T08:52:48.407Z,100564.94
2022-11-05T08:53:49.912Z,100570.63
2022-11-05T08:54:51.426Z,100568.09
2022-11-05T08:55:52.856Z,100565.00
2022-11-05T08:56:54.389Z,100576.25
2022-11-05T08:57:56.587Z,100566.97
2022-11-05T08:58:58.090Z,100577.94
2022-11-05T08:59:59.986Z,100571.22
2022-11-05T09:01:04.981Z,100581.06
2022-11-05T09:02:07.154Z,100562.25
2022-11-05T09:03:08.897Z,100576.31
2022-11-05T09:04:10.815Z,100576.88
2022-11-05T09:05:12.442Z,100579.69
2022-11-05T09:06:14.553Z,100575.75
2022-11-05T09:07:16.046Z,100580.19
2022-11-05T09:08:17.894Z,100575.69
2022-11-05T09:09:19.381Z,100571.75
2022-11-05T09:10:20.901Z,100576.25
2022-11-05T09:11:22.399Z,100575.94
2022-11-05T09:12:23.904Z,100573.38
2022-11-05T09:13:25.775Z,100571.09
2022-11-05T09:14:27.440Z,100579.53
2022-11-05T09:15:28.942Z,100578.97
2022-11-05T09:16:32.553Z,100573.91
2022-11-05T09:17:34.018Z,100582.88
2022-11-05T09:18:35.645Z,100581.47
2022-11-05T09:19:39.946Z,100571.59
2022-11-05T09:20:41.850Z,100579.41
2022-11-05T09:21:43.354Z,100580.19
2022-11-05T09:22:45.073Z,100579.81
2022-11-05T09:23:46.816Z,100580.03
2022-11-05T09:24:48.281Z,100580.31
2022-11-05T09:25:49.803Z,100576.81
2022-11-05T09:26:51.379Z,100578.66
2022-11-05T09:27:52.839Z,100574.38
2022-11-05T09:28:54.346Z,100571.47
2022-11-05T09:29:55.822Z,100576.41
2022-11-05T09:30:57.291Z,100579.06
2022-11-05T09:31:58.741Z,100578.34
2022-11-05T09:33:00.247Z,100575.00
2022-11-05T09:34:01.772Z,100577.25
2022-11-05T09:35:03.758Z,100579.84
2022-11-05T09:36:05.484Z,100584.50
2022-11-05T09:37:06.951Z,100581.22
2022-11-05T09:38:08.493Z,100587.75
2022-11-05T09:39:10.003Z,100585.94
2022-11-05T09:40:14.412Z,100580.75
2022-11-05T09:41:51.429Z,100581.41
2022-11-05T09:42:54.918Z,100585.25
2022-11-05T09:43:57.574Z,100577.66
2022-11-05T09:45:02.324Z,100577.28
2022-11-05T09:46:15.055Z,100581.09
2022-11-05T09:47:20.748Z,100578.66
2022-11-05T09:48:23.433Z,100578.22
2022-11-05T09:49:25.126Z,100585.06
2022-11-05T09:50:46.841Z,100578.75
2022-11-05T09:51:48.353Z,100583.69
2022-11-05T09:52:49.801Z,100588.78
2022-11-05T09:53:51.417Z,100586.66
2022-11-05T09:54:53.037Z,100589.81
2022-11-05T09:55:55.494Z,100597.66
2022-11-05T09:56:56.993Z,100591.16
2022-11-05T09:57:59.549Z,100602.88
2022-11-05T09:59:26.904Z,100588.69
2022-11-05T10:00:28.863Z,100594.81
2022-11-05T10:01:31.241Z,100596.94
2022-11-05T10:02:33.640Z,100596.81
2022-11-05T10:03:35.189Z,100592.88
2022-11-05T10:04:36.718Z,100595.41
2022-11-05T10:05:38.243Z,100596.44
2022-11-05T10:06:42.885Z,100592.31
2022-11-05T10:07:53.077Z,100592.97
2022-11-05T10:09:20.332Z,100591.84
2022-11-05T10:10:23.144Z,100596.91
2022-11-05T10:11:35.502Z,100604.34
2022-11-05T10:12:56.193Z,100603.69
2022-11-05T10:13:59.502Z,100593.34
2022-11-05T10:15:01.050Z,100601.03
2022-11-05T10:16:03.884Z,100604.41
2022-11-05T10:17:09.513Z,100612.09
2022-11-05T10:18:15.373Z,100603.06
2022-11-05T10:19:24.246Z,100602.06
2022-11-05T10:20:31.357Z,100604.53
2022-11-05T10:22:04.289Z,100604.69
2022-11-05T10:22:55.314Z,100599.19
2022-11-05T10:23:56.795Z,100603.22
2022-11-05T10:24:58.324Z,100607.72
2022-11-05T10:26:03.797Z,100606.06
2022-11-05T10:27:05.247Z,100600.03
2022-11-05T10:28:07.359Z,100607.72
2022-11-05T10:29:11.491Z,100604.56
2022-11-05T10:30:14.175Z,100612.72
2022-11-05T10:31:17.145Z,100610.72
2022-11-05T10:32:24.336Z,100607.22
2022-11-05T10:33:40.029Z,100610.56
2022-11-05T10:34:41.539Z,100612.56
2022-11-05T10:35:47.597Z,100608.75
2022-11-05T10:36:49.069Z,100615.91
2022-11-05T10:37:50.632Z,100609.84
2022-11-05T10:38:53.069Z,100614.00
2022-11-05T10:39:54.582Z,100601.94
2022-11-05T10:41:14.715Z,100606.28
2022-11-05T10:42:18.966Z,100602.63
2022-11-05T10:43:20.419Z,100611.50
2022-11-05T10:44:33.713Z,100609.16
2022-11-05T10:45:38.447Z,100606.50
2022-11-05T10:46:46.276Z,100605.97
2022-11-05T10:47:50.670Z,100615.31
2022-11-05T10:49:11.203Z,100613.88
2022-11-05T10:50:13.781Z,100610.53
2022-11-05T10:51:15.278Z,100612.47
2022-11-05T10:52:20.868Z,100616.97
2022-11-05T10:53:24.035Z,100610.09
2022-11-05T10:54:26.588Z,100613.44
2022-11-05T10:55:29.283Z,100610.81
2022-11-05T10:56:37.649Z,100609.31
2022-11-05T10:57:39.813Z,100611.50
2022-11-05T10:58:42.134Z,100617.00
2022-11-05T10:59:43.620Z,100611.84
2022-11-05T11:00:53.888Z,100612.88
2022-11-05T11:01:59.859Z,100614.88
2022-11-05T11:03:02.105Z,100616.56
2022-11-05T11:04:05.227Z,100610.88
2022-11-05T11:05:06.694Z,100610.69
2022-11-05T11:06:26.977Z,100608.38
2022-11-05T11:07:28.453Z,100615.91
2022-11-05T11:08:29.958Z,100603.56
2022-11-05T11:09:32.181Z,100612.78
2022-11-05T11:10:36.301Z,100609.41
2022-11-05T11:11:39.034Z,100608.91
2022-11-05T11:12:42.286Z,100605.38
2022-11-05T11:13:51.487Z,100601.69
2022-11-05T11:15:13.084Z,100603.69
2022-11-05T11:16:15.870Z,100599.84
2022-11-05T11:17:27.656Z,100598.84
2022-11-05T11:18:33.361Z,100605.34
2022-11-05T11:19:37.427Z,100599.00
2022-11-05T11:20:39.033Z,100596.00
2022-11-05T11:21:41.740Z,100597.34
2022-11-05T11:22:49.107Z,100594.50
2022-11-05T11:24:00.829Z,100597.19
2022-11-05T11:25:02.310Z,100592.00
2022-11-05T11:26:04.182Z,100596.69
2022-11-05T11:27:06.726Z,100598.84
2022-11-05T11:28:10.892Z,100594.16
2022-11-05T11:29:28.078Z,100598.19
2022-11-05T11:30:29.597Z,100592.00
2022-11-05T11:31:31.682Z,100596.66
2022-11-05T11:32:34.136Z,100597.31
2022-11-05T11:33:35.730Z,100603.31
2022-11-05T11:34:38.928Z,100592.63
2022-11-05T11:35:40.442Z,100604.59
2022-11-05T11:36:45.729Z,100595.22
2022-11-05T11:37:47.203Z,100599.25
2022-11-05T11:38:48.687Z,100597.06
2022-11-05T11:39:54.842Z,100598.91
2022-11-05T11:41:19.170Z,100600.69
2022-11-05T11:42:22.115Z,100597.16
2022-11-05T11:43:26.496Z,100601.63
2022-11-05T11:44:31.807Z,100598.75
2022-11-05T11:45:35.796Z,100600.06
2022-11-05T11:46:37.321Z,100596.34
2022-11-05T11:47:38.800Z,100594.69
2022-11-05T11:48:40.652Z,100597.53
2022-11-05T11:49:42.170Z,100596.16
2022-11-05T11:50:44.243Z,100592.75
2022-11-05T11:51:49.949Z,100595.84
2022-11-05T11:52:51.900Z,100603.44
2022-11-05T11:53:56.002Z,100603.06
2022-11-05T11:55:09.505Z,100605.59
2022-11-05T11:56:20.439Z,100605.59
2022-11-05T11:57:28.442Z,100594.56
2022-11-05T11:58:39.660Z,100590.06
2022-11-05T12:00:10.347Z,100598.69
2022-11-05T12:01:20.244Z,100600.00
2022-11-05T12:02:30.324Z,100591.69
2022-11-05T12:03:35.388Z,100600.00
2022-11-05T12:04:43.289Z,100592.00
2022-11-05T12:05:47.910Z,100597.19
2022-11-05T12:07:08.013Z,100591.75
2022-11-05T12:08:12.234Z,100596.25
2022-11-05T12:09:13.737Z,100594.13
2022-11-05T12:10:21.019Z,100598.75
2022-11-05T12:11:25.357Z,100595.22
2022-11-05T12:12:38.814Z,100593.94
2022-11-05T12:13:43.038Z,100599.78
2022-11-05T12:15:02.031Z,100590.84
2022-11-05T12:16:03.491Z,100594.84
2022-11-05T12:17:25.221Z,100594.44
2022-11-05T12:18:30.138Z,100593.59